Time;durP1;ratioP1;P1;durP2;ratioP2;P2;SDS_P1;SDS_P2;PMS_P1;PMS_P2;Temp;Humidity;BMP_temperature;BMP_pressure;BME280_temperature;BME280_humidity;BME280_pressure;Samples;Min_cycle;Max_cycle;Signal;HPM_P1;HPM_P2
2021/05/24 00:02:23;;;;;;;;;;;;;;;15.49;85.77;99356.04;1816919;79;20219;-81
2021/05/24 00:04:49;;;;;;;;;;;;;;;15.44;85.90;99349.31;1790797;78;20623;-81
2021/05/24 00:07:15;;;;;;;;;;;;;;;15.50;85.63;99359.53;1806146;79;20177;-81
2021/05/24 00:09:42;;;;;;;;;;;;;;;15.53;84.81;99360.70;1797400;78;20214;-82
2021/05/24 00:12:09;;;;;;;;;;;;;;;15.53;84.12;99360.70;1812282;79;20212;-81
2021/05/24 00:14:38;;;;;;;;;;;;;;;15.50;84.53;99363.00;1798733;78;20188;-82
2021/05/24 00:17:03;;;;;;;;;;;;;;;15.50;84.26;99355.14;1811654;79;20191;-81
2021/05/24 00:19:30;;;;;;;;;;;;;;;15.43;84.81;99366.77;1811169;79;20179;-83
2021/05/24 00:21:56;;;;;;;;;;;;;;;15.43;84.95;99376.41;1795175;78;20275;-82
2021/05/24 00:24:22;;;;;;;;;;;;;;;15.39;84.51;99380.91;1812809;78;20204;-81
2021/05/24 00:26:49;;;;;;;;;;;;;;;15.38;83.78;99383.16;1816596;78;20148;-82
2021/05/24 00:29:19;;;;;;;;;;;;;;;15.36;84.20;99388.91;1802398;79;20172;-81
2021/05/24 00:31:43;;;;;;;;;;;;;;;15.30;84.60;99392.63;1813552;79;20239;-83
2021/05/24 00:34:09;;;;;;;;;;;;;;;15.30;83.55;99395.24;1810267;79;20593;-82
2021/05/24 00:36:36;;;;;;;;;;;;;;;15.26;84.25;99409.80;1811788;79;20208;-83
2021/05/24 00:39:07;;;;;;;;;;;;;;;15.23;85.76;99421.27;1806735;78;20150;-83
2021/05/24 00:41:32;;;;;;;;;;;;;;;15.22;85.08;99434.41;1800757;79;20172;-80
2021/05/24 00:43:58;;;;;;;;;;;;;;;15.21;85.69;99439.27;1797385;78;20179;-79
2021/05/24 00:46:24;;;;;;;;;;;;;;;15.22;85.24;99447.08;1797662;79;20169;-81
2021/05/24 00:48:51;;;;;;;;;;;;;;;15.15;85.36;99441.66;1803121;78;20197;-80
2021/05/24 00:51:17;;;;;;;;;;;;;;;15.16;85.48;99455.17;1802966;79;20244;-82
2021/05/24 00:53:43;;;;;;;;;;;;;;;15.15;83.58;99462.62;1800653;78;20226;-81
2021/05/24 00:56:09;;;;;;;;;;;;;;;15.14;78.05;99472.71;1798705;79;20176;-80
2021/05/24 00:58:36;;;;;;;;;;;;;;;15.18;77.16;99479.53;1798035;78;20195;-80
2021/05/24 01:01:02;;;;;;;;;;;;;;;15.17;73.97;99487.44;1756874;80;20647;-81
2021/05/24 01:03:28;;;;;;;;;;;;;;;15.15;73.32;99477.02;1761063;81;20211;-79
2021/05/24 01:05:55;;;;;;;;;;;;;;;15.15;71.58;99478.33;1774311;79;20211;-80
2021/05/24 01:08:21;;;;;;;;;;;;;;;15.16;72.52;99479.17;1765220;81;20215;-82
2021/05/24 01:10:47;;;;;;;;;;;;;;;15.15;73.86;99485.34;1770403;80;20176;-81
2021/05/24 01:13:15;;;;;;;;;;;;;;;15.07;75.65;99477.77;1763279;80;20218;-80
2021/05/24 01:15:42;;;;;;;;;;;;;;;14.99;76.70;99496.84;1750689;81;20138;-83
2021/05/24 01:18:09;;;;;;;;;;;;;;;14.92;77.58;99485.72;1758204;80;20180;-82
2021/05/24 01:20:36;;;;;;;;;;;;;;;14.85;76.94;99489.02;1777265;81;20175;-84
2021/05/24 01:25:32;;;;;;;;;;;;;;;14.80;76.35;99488.78;1780045;80;20194;-83
2021/05/24 01:27:59;;;;;;;;;;;;;;;14.69;77.58;99482.64;1778037;80;20161;-83
2021/05/24 01:30:26;;;;;;;;;;;;;;;14.62;76.80;99478.52;1777335;80;20202;-84
2021/05/24 01:32:52;;;;;;;;;;;;;;;14.52;76.65;99481.45;1774359;81;20175;-83
2021/05/24 01:35:19;;;;;;;;;;;;;;;14.49;75.54;99493.31;1768087;80;20171;-83
2021/05/24 01:37:45;;;;;;;;;;;;;;;14.42;76.48;99497.50;1786115;80;20190;-83
2021/05/24 01:40:12;;;;;;;;;;;;;;;14.34;77.20;99499.06;1776170;80;20963;-84
2021/05/24 01:42:39;;;;;;;;;;;;;;;14.29;77.05;99496.62;1775936;81;20159;-84
2021/05/24 01:45:07;;;;;;;;;;;;;;;14.20;77.87;99505.22;1775963;81;20160;-83
2021/05/24 01:47:33;;;;;;;;;;;;;;;14.18;78.14;99504.42;1775973;80;20189;-82
2021/05/24 01:49:59;;;;;;;;;;;;;;;14.15;77.96;99500.62;1768949;81;20150;-83
2021/05/24 01:52:25;;;;;;;;;;;;;;;14.09;78.19;99511.67;1761502;81;20155;-85
2021/05/24 01:54:51;;;;;;;;;;;;;;;14.05;78.75;99513.14;1767584;81;20204;-83
2021/05/24 01:57:18;;;;;;;;;;;;;;;14.01;78.54;99527.21;1745336;82;20289;-85
2021/05/24 01:59:44;;;;;;;;;;;;;;;13.97;78.45;99524.30;1764144;81;20100;-85
2021/05/24 02:02:10;;;;;;;;;;;;;;;13.91;78.65;99531.88;1815327;79;20159;-85
2021/05/24 02:04:36;;;;;;;;;;;;;;;13.87;78.44;99532.42;1804084;78;20151;-83
2021/05/24 02:07:03;;;;;;;;;;;;;;;13.82;79.17;99539.99;1802219;80;20128;-82
2021/05/24 02:09:29;;;;;;;;;;;;;;;13.76;79.28;99550.18;1804265;79;20105;-84
2021/05/24 02:11:56;;;;;;;;;;;;;;;13.72;78.48;99565.09;1819865;79;20165;-82
2021/05/24 02:14:22;;;;;;;;;;;;;;;13.65;80.74;99567.50;1819026;79;20160;-83
2021/05/24 02:16:49;;;;;;;;;;;;;;;13.62;78.98;99571.50;1819083;78;20180;-84
2021/05/24 02:19:17;;;;;;;;;;;;;;;13.57;79.94;99581.25;1807984;79;20233;-84
2021/05/24 02:21:43;;;;;;;;;;;;;;;13.51;79.20;99580.98;1787626;80;20679;-83
2021/05/24 02:24:11;;;;;;;;;;;;;;;13.47;80.08;99587.66;1787189;80;20172;-84
2021/05/24 02:26:40;;;;;;;;;;;;;;;13.44;81.18;99589.03;1787368;80;20230;-83
2021/05/24 02:29:07;;;;;;;;;;;;;;;13.39;82.61;99579.16;1793081;78;20177;-84
2021/05/24 02:31:34;;;;;;;;;;;;;;;13.33;83.15;99581.06;1792007;80;20208;-84
2021/05/24 02:34:02;;;;;;;;;;;;;;;13.29;84.71;99586.36;1799236;79;20167;-84
2021/05/24 02:36:29;;;;;;;;;;;;;;;13.25;85.18;99583.43;1804794;78;20187;-83
2021/05/24 02:38:56;;;;;;;;;;;;;;;13.19;85.55;99584.91;1813655;79;20184;-83
2021/05/24 02:41:22;;;;;;;;;;;;;;;13.16;85.19;99600.22;1804288;79;20200;-84
2021/05/24 02:43:49;;;;;;;;;;;;;;;13.13;83.81;99605.55;1796901;79;20180;-82
2021/05/24 02:46:15;;;;;;;;;;;;;;;13.09;85.45;99611.71;1818639;79;20153;-83
2021/05/24 02:48:41;;;;;;;;;;;;;;;13.08;84.71;99613.94;1811949;79;20204;-84
2021/05/24 02:51:08;;;;;;;;;;;;;;;13.07;84.05;99613.09;1801645;80;20205;-83
2021/05/24 02:53:34;;;;;;;;;;;;;;;13.04;85.41;99602.72;1807849;79;20157;-83
2021/05/24 02:56:00;;;;;;;;;;;;;;;13.07;84.66;99602.64;1788805;79;20179;-82
2021/05/24 02:58:27;;;;;;;;;;;;;;;13.07;85.28;99602.64;1786239;79;20179;-82
2021/05/24 03:00:53;;;;;;;;;;;;;;;13.08;84.48;99612.17;1813765;79;20191;-83
2021/05/24 03:03:22;;;;;;;;;;;;;;;13.11;83.57;99618.63;1801515;78;20195;-84
2021/05/24 03:05:48;;;;;;;;;;;;;;;13.11;84.42;99628.19;1804842;79;20492;-83
2021/05/24 03:08:14;;;;;;;;;;;;;;;13.10;84.04;99629.95;1784697;78;20204;-83
2021/05/24 03:10:41;;;;;;;;;;;;;;;13.10;84.50;99635.17;1809063;79;20212;-83
2021/05/24 03:13:08;;;;;;;;;;;;;;;13.11;83.20;99637.33;1790127;78;20199;-82
2021/05/24 03:15:35;;;;;;;;;;;;;;;13.09;83.76;99638.70;1793166;78;20193;-83
2021/05/24 03:18:02;;;;;;;;;;;;;;;13.08;83.02;99643.95;1795505;78;20653;-86
2021/05/24 03:20:28;;;;;;;;;;;;;;;13.06;83.22;99663.56;1806041;79;20201;-82
2021/05/24 03:22:55;;;;;;;;;;;;;;;13.07;82.11;99669.20;1806087;79;20196;-82
2021/05/24 03:25:21;;;;;;;;;;;;;;;13.09;80.87;99670.45;1799240;79;20172;-84
2021/05/24 03:27:48;;;;;;;;;;;;;;;13.11;81.60;99670.84;1797696;78;20548;-82
2021/05/24 03:30:15;;;;;;;;;;;;;;;13.14;81.48;99656.38;1810287;79;20180;-83
2021/05/24 03:32:42;;;;;;;;;;;;;;;13.18;81.94;99654.55;1810869;79;20165;-84
2021/05/24 03:35:09;;;;;;;;;;;;;;;13.20;81.97;99657.98;1804242;79;20539;-83
2021/05/24 03:37:36;;;;;;;;;;;;;;;13.22;81.18;99661.86;1811179;79;20188;-85
2021/05/24 03:40:07;;;;;;;;;;;;;;;13.22;80.79;99659.25;1818194;78;20225;-83
2021/05/24 03:42:33;;;;;;;;;;;;;;;13.25;80.09;99665.67;1803845;79;20256;-84
2021/05/24 03:45:01;;;;;;;;;;;;;;;13.26;79.71;99670.02;1792873;79;20156;-83
2021/05/24 03:47:27;;;;;;;;;;;;;;;13.26;80.57;99675.23;1778925;80;20187;-83
2021/05/24 03:49:53;;;;;;;;;;;;;;;13.30;79.79;99683.43;1795575;79;20177;-82
2021/05/24 03:52:19;;;;;;;;;;;;;;;13.32;80.41;99698.15;1809824;79;20177;-82
2021/05/24 03:54:46;;;;;;;;;;;;;;;13.36;80.62;99703.30;1781232;80;20255;-84
2021/05/24 03:57:12;;;;;;;;;;;;;;;13.38;80.96;99701.05;1807814;79;20165;-83
2021/05/24 03:59:39;;;;;;;;;;;;;;;13.41;81.96;99710.13;1793279;79;20187;-84
2021/05/24 04:02:06;;;;;;;;;;;;;;;13.41;81.30;99707.94;1779989;80;20201;-83
2021/05/24 04:04:32;;;;;;;;;;;;;;;13.41;81.27;99711.85;1772117;80;20209;-84
2021/05/24 04:07:00;;;;;;;;;;;;;;;13.44;86.60;99724.84;1815538;79;20153;-83
2021/05/24 04:09:27;;;;;;;;;;;;;;;13.50;84.19;99717.69;1789377;79;20160;-83
2021/05/24 04:11:53;;;;;;;;;;;;;;;13.57;84.70;99724.93;1777869;81;20258;-85
2021/05/24 04:14:19;;;;;;;;;;;;;;;13.60;87.48;99725.29;1777406;81;20183;-83
2021/05/24 04:16:45;;;;;;;;;;;;;;;13.66;86.70;99735.11;1777729;81;20151;-86
2021/05/24 04:19:13;;;;;;;;;;;;;;;13.73;85.17;99732.75;1795382;79;20149;-85
2021/05/24 04:21:41;;;;;;;;;;;;;;;13.76;85.64;99732.25;1808276;79;20142;-83
2021/05/24 04:24:08;;;;;;;;;;;;;;;13.79;85.56;99738.26;1807264;79;20177;-84
2021/05/24 04:26:35;;;;;;;;;;;;;;;13.85;85.21;99754.22;1820159;79;20144;-84
2021/05/24 04:29:01;;;;;;;;;;;;;;;13.85;85.68;99757.69;1805446;79;20174;-83
2021/05/24 04:31:27;;;;;;;;;;;;;;;13.96;84.85;99766.98;1787317;80;20251;-83
2021/05/24 04:33:54;;;;;;;;;;;;;;;13.98;85.18;99763.41;1787630;80;20202;-82
2021/05/24 04:36:20;;;;;;;;;;;;;;;14.07;84.32;99771.00;1787082;80;20194;-85
2021/05/24 04:38:46;;;;;;;;;;;;;;;14.10;84.68;99764.81;1796732;79;20148;-84
2021/05/24 04:41:12;;;;;;;;;;;;;;;14.18;83.61;99761.98;1791968;79;20173;-85
2021/05/24 04:43:39;;;;;;;;;;;;;;;14.20;83.49;99764.95;1793796;79;20194;-87
2021/05/24 04:46:06;;;;;;;;;;;;;;;14.27;82.46;99757.34;1793148;80;20181;-85
2021/05/24 04:48:37;;;;;;;;;;;;;;;14.26;82.88;99775.23;1793473;78;20150;-85
2021/05/24 04:51:02;;;;;;;;;;;;;;;14.29;83.16;99780.38;1792534;80;20185;-84
2021/05/24 04:53:31;;;;;;;;;;;;;;;14.31;82.99;99780.34;1812004;79;20174;-84
2021/05/24 04:55:57;;;;;;;;;;;;;;;14.36;82.84;99773.20;1814537;79;20168;-82
2021/05/24 04:58:24;;;;;;;;;;;;;;;14.45;82.34;99790.41;1820172;79;20102;-86
2021/05/24 05:00:51;;;;;;;;;;;;;;;14.52;82.01;99790.17;1792283;79;20118;-86
2021/05/24 05:03:17;;;;;;;;;;;;;;;14.60;81.92;99786.02;1813301;78;20126;-85
2021/05/24 05:05:43;;;;;;;;;;;;;;;14.66;81.21;99800.69;1813074;78;20106;-86
2021/05/24 05:08:09;;;;;;;;;;;;;;;14.72;80.75;99804.42;1793798;78;20221;-88
2021/05/24 05:10:38;;;;;;;;;;;;;;;14.77;80.71;99806.46;1658597;87;20172;-88
2021/05/24 05:13:04;;;;;;;;;;;;;;;14.84;80.03;99806.69;1682621;85;20229;-85
2021/05/24 05:15:31;;;;;;;;;;;;;;;14.88;80.16;99801.75;1683797;85;20174;-85
2021/05/24 05:17:57;;;;;;;;;;;;;;;14.98;80.12;99818.46;1684057;85;20198;-85
2021/05/24 05:20:23;;;;;;;;;;;;;;;15.04;78.39;99812.60;1682603;85;20175;-85
2021/05/24 05:22:50;;;;;;;;;;;;;;;15.10;77.70;99815.02;1665714;84;20358;-84
2021/05/24 05:25:18;;;;;;;;;;;;;;;15.18;77.77;99818.70;1676228;85;20150;-85
2021/05/24 05:27:44;;;;;;;;;;;;;;;15.23;77.87;99828.56;1683957;85;20198;-84
2021/05/24 05:30:12;;;;;;;;;;;;;;;15.31;77.68;99824.38;1680946;85;20207;-85
2021/05/24 05:32:38;;;;;;;;;;;;;;;15.35;76.86;99824.69;1650018;86;20194;-85
2021/05/24 05:35:05;;;;;;;;;;;;;;;15.44;76.64;99830.09;1673479;85;20218;-85
2021/05/24 05:37:31;;;;;;;;;;;;;;;15.49;76.54;99830.77;1684215;85;20191;-85
2021/05/24 05:39:58;;;;;;;;;;;;;;;15.55;76.09;99820.55;1685302;85;20131;-86
2021/05/24 05:42:24;;;;;;;;;;;;;;;15.55;74.19;99821.86;1682329;85;20182;-86
2021/05/24 05:44:51;;;;;;;;;;;;;;;15.64;73.20;99819.78;1684646;84;20235;-85
2021/05/24 05:47:17;;;;;;;;;;;;;;;15.74;73.37;99822.98;1684314;85;20104;-87
2021/05/24 05:49:48;;;;;;;;;;;;;;;15.78;72.72;99817.18;1660703;85;20163;-83
2021/05/24 05:52:15;;;;;;;;;;;;;;;15.84;73.73;99806.47;1676862;84;20181;-84
2021/05/24 05:54:41;;;;;;;;;;;;;;;15.83;73.53;99812.15;1666188;85;21119;-82
2021/05/24 05:57:08;;;;;;;;;;;;;;;15.95;72.39;99812.17;1674260;85;20191;-86
2021/05/24 05:59:34;;;;;;;;;;;;;;;15.98;71.78;99803.36;1682401;84;20194;-86
2021/05/24 06:02:00;;;;;;;;;;;;;;;16.11;72.48;99815.09;1678861;85;20201;-85
2021/05/24 06:04:26;;;;;;;;;;;;;;;16.16;71.55;99814.95;1678025;84;20202;-86
2021/05/24 06:06:52;;;;;;;;;;;;;;;16.19;70.29;99822.69;1675477;85;20162;-89
2021/05/24 06:09:19;;;;;;;;;;;;;;;16.33;71.22;99824.34;1670031;85;20203;-88
2021/05/24 06:11:46;;;;;;;;;;;;;;;16.44;71.43;99821.34;1653993;86;20244;-89
2021/05/24 06:14:13;;;;;;;;;;;;;;;16.48;69.19;99808.50;1657136;85;20188;-84
2021/05/24 06:16:39;;;;;;;;;;;;;;;16.59;69.38;99810.70;1656989;86;20193;-86
2021/05/24 06:19:05;;;;;;;;;;;;;;;16.66;69.75;99816.97;1659858;86;20198;-83
2021/05/24 06:21:32;;;;;;;;;;;;;;;16.75;69.57;99812.27;1655141;85;20250;-85
2021/05/24 06:23:58;;;;;;;;;;;;;;;16.83;69.71;99818.11;1662808;86;20187;-85
2021/05/24 06:26:25;;;;;;;;;;;;;;;16.74;69.36;99787.80;1660218;85;20166;-85
2021/05/24 06:28:51;;;;;;;;;;;;;;;17.05;68.22;99823.36;1663528;86;20150;-85
2021/05/24 06:31:17;;;;;;;;;;;;;;;17.14;67.78;99824.31;1664561;86;20198;-86
2021/05/24 06:33:44;;;;;;;;;;;;;;;17.21;66.09;99818.34;1665333;86;20143;-86
2021/05/24 06:36:10;;;;;;;;;;;;;;;17.26;65.50;99819.02;1666032;86;20171;-87
2021/05/24 06:38:37;;;;;;;;;;;;;;;17.23;64.56;99823.95;1666001;86;20171;-87
2021/05/24 06:41:04;;;;;;;;;;;;;;;17.35;65.20;99832.23;1659277;85;20193;-86
2021/05/24 06:43:30;;;;;;;;;;;;;;;17.46;64.62;99829.55;1641690;86;20197;-84
2021/05/24 06:45:57;;;;;;;;;;;;;;;17.56;65.08;99835.75;1662982;86;20275;-84
2021/05/24 06:48:23;;;;;;;;;;;;;;;17.67;66.19;99835.70;1664705;86;20203;-85
2021/05/24 06:50:50;;;;;;;;;;;;;;;17.86;64.65;99842.35;1663168;86;20251;-83
2021/05/24 06:53:16;;;;;;;;;;;;;;;17.98;63.53;99840.13;1645584;86;20192;-84
2021/05/24 06:55:43;;;;;;;;;;;;;;;18.02;62.97;99833.33;1659777;86;20195;-84
2021/05/24 06:58:09;;;;;;;;;;;;;;;18.08;63.13;99830.46;1660605;86;20274;-85
2021/05/24 07:00:36;;;;;;;;;;;;;;;18.11;63.25;99837.83;1660565;86;20301;-84
2021/05/24 07:03:02;;;;;;;;;;;;;;;18.08;63.06;99830.46;1663950;86;20166;-83
2021/05/24 07:05:29;;;;;;;;;;;;;;;18.20;62.70;99832.13;1657709;86;20197;-84
2021/05/24 07:07:55;;;;;;;;;;;;;;;18.13;62.72;99841.24;1660705;86;20270;-82
2021/05/24 07:10:22;;;;;;;;;;;;;;;18.16;61.14;99837.14;1678270;85;20170;-84
2021/05/24 07:12:48;;;;;;;;;;;;;;;18.07;61.30;99835.78;1679929;84;20143;-85
2021/05/24 07:15:15;;;;;;;;;;;;;;;18.13;62.15;99846.03;1682375;82;20235;-82
2021/05/24 07:17:43;;;;;;;;;;;;;;;18.24;62.45;99848.17;1686868;82;20206;-86
2021/05/24 07:20:10;;;;;;;;;;;;;;;18.31;61.86;99840.41;1674565;85;20270;-83
2021/05/24 07:22:41;;;;;;;;;;;;;;;18.44;61.75;99842.01;1660607;83;20138;-87
2021/05/24 07:25:16;;;;;;;;;;;;;;;18.45;61.56;99835.84;1665847;83;20179;-84
2021/05/24 07:27:46;;;;;;;;;;;;;;;18.53;61.99;99839.44;1669845;85;20167;-86
2021/05/24 07:30:14;;;;;;;;;;;;;;;18.50;58.83;99835.14;1639298;85;20236;-86
2021/05/24 07:32:42;;;;;;;;;;;;;;;18.58;59.83;99841.37;1680339;82;20135;-86
2021/05/24 07:35:09;;;;;;;;;;;;;;;18.68;61.04;99836.06;1682088;85;20143;-85
2021/05/24 07:37:36;;;;;;;;;;;;;;;18.68;57.83;99832.12;1686448;85;20251;-84
2021/05/24 07:40:08;;;;;;;;;;;;;;;18.78;60.51;99829.47;1684804;85;20256;-83
2021/05/24 07:42:35;;;;;;;;;;;;;;;18.92;60.61;99823.58;1666791;85;20143;-83
2021/05/24 07:45:03;;;;;;;;;;;;;;;19.11;60.20;99827.48;1681158;84;20673;-83
2021/05/24 07:47:30;;;;;;;;;;;;;;;19.34;61.24;99819.77;1675191;85;20586;-84
2021/05/24 07:49:57;;;;;;;;;;;;;;;19.53;59.06;99816.20;1678919;85;20979;-84
2021/05/24 07:52:24;;;;;;;;;;;;;;;19.72;56.58;99822.77;1680115;84;20278;-83
2021/05/24 07:54:52;;;;;;;;;;;;;;;19.95;58.81;99810.52;1678598;84;20230;-81
2021/05/24 07:57:20;;;;;;;;;;;;;;;20.20;56.68;99806.12;1683828;85;20250;-84
2021/05/24 07:59:50;;;;;;;;;;;;;;;20.42;56.12;99807.13;1684678;85;20270;-84
2021/05/24 08:02:18;;;;;;;;;;;;;;;20.48;58.01;99801.15;1683328;85;20242;-84
2021/05/24 08:04:45;;;;;;;;;;;;;;;20.40;54.42;99797.59;1667874;85;20169;-85
2021/05/24 08:07:12;;;;;;;;;;;;;;;20.56;56.86;99807.70;1683412;85;20236;-85
2021/05/24 08:09:40;;;;;;;;;;;;;;;20.31;54.47;99819.21;1683634;85;20155;-85
2021/05/24 08:12:07;;;;;;;;;;;;;;;20.30;54.55;99824.97;1666229;85;20258;-87
2021/05/24 08:14:33;;;;;;;;;;;;;;;20.42;55.64;99824.30;1689255;84;20208;-85
2021/05/24 08:17:02;;;;;;;;;;;;;;;20.58;53.77;99814.23;1662029;85;20163;-86
2021/05/24 08:19:28;;;;;;;;;;;;;;;20.70;52.26;99804.81;1686188;84;20187;-85
2021/05/24 08:21:57;;;;;;;;;;;;;;;20.86;49.49;99813.57;1688272;84;20293;-86
2021/05/24 08:24:23;;;;;;;;;;;;;;;21.08;51.93;99809.23;1684854;84;20116;-86
2021/05/24 08:26:51;;;;;;;;;;;;;;;21.18;50.00;99818.34;1668374;84;20207;-86
2021/05/24 08:29:19;;;;;;;;;;;;;;;21.26;49.54;99818.75;1682123;85;20190;-86
2021/05/24 08:31:50;;;;;;;;;;;;;;;21.35;47.37;99824.47;1679638;85;20112;-85
2021/05/24 08:34:19;;;;;;;;;;;;;;;21.41;46.56;99824.11;1666375;85;20141;-85
2021/05/24 08:36:53;;;;;;;;;;;;;;;21.32;44.84;99831.25;1680755;82;20217;-87
2021/05/24 08:39:24;;;;;;;;;;;;;;;21.19;45.79;99829.31;1705090;80;20237;-88
2021/05/24 08:42:01;;;;;;;;;;;;;;;21.22;48.47;99823.83;1716429;78;20166;-88
2021/05/24 08:44:33;;;;;;;;;;;;;;;21.40;48.79;99822.39;1717432;82;20232;-84
2021/05/24 08:47:02;;;;;;;;;;;;;;;21.62;49.64;99820.20;1674649;82;20198;-89
2021/05/24 08:49:30;;;;;;;;;;;;;;;21.79;48.29;99825.84;1687915;85;20246;-89
2021/05/24 08:51:59;;;;;;;;;;;;;;;21.92;47.58;99827.73;1682221;84;20190;-83
2021/05/24 08:54:26;;;;;;;;;;;;;;;21.76;39.53;99831.30;1673508;85;20216;-85
2021/05/24 08:56:52;;;;;;;;;;;;;;;21.73;41.12;99814.30;1684108;85;20186;-83
2021/05/24 08:59:18;;;;;;;;;;;;;;;21.70;43.35;99819.76;1677041;85;20245;-79
2021/05/24 09:01:45;;;;;;;;;;;;;;;21.64;43.56;99813.52;1676942;85;20526;-82
2021/05/24 09:04:11;;;;;;;;;;;;;;;21.64;43.42;99817.48;1679593;85;20198;-81
2021/05/24 09:06:42;;;;;;;;;;;;;;;21.83;48.29;99824.70;1680984;83;20264;-81
2021/05/24 09:09:14;;;;;;;;;;;;;;;21.98;45.09;99821.59;1672406;84;20217;-80
2021/05/24 09:11:42;;;;;;;;;;;;;;;22.24;46.63;99820.49;1641018;85;20218;-81
2021/05/24 09:14:22;;;;;;;;;;;;;;;22.51;44.41;99830.34;1649463;85;20327;-79
2021/05/24 09:17:00;;;;;;;;;;;;;;;22.74;42.96;99828.41;1648051;85;20211;-82
2021/05/24 09:19:29;;;;;;;;;;;;;;;22.80;42.04;99843.92;1648713;85;20225;-80
2021/05/24 09:22:01;;;;;;;;;;;;;;;22.89;43.56;99842.95;1648161;85;20612;-79
2021/05/24 09:24:38;;;;;;;;;;;;;;;22.66;40.34;99847.05;1645786;87;20212;-81
2021/05/24 09:27:07;;;;;;;;;;;;;;;22.48;45.42;99849.06;1644345;87;20213;-83
2021/05/24 09:29:45;;;;;;;;;;;;;;;22.41;43.20;99836.20;1630998;85;20256;-81
2021/05/24 09:32:17;;;;;;;;;;;;;;;22.34;42.43;99837.55;1653284;85;20343;-82
2021/05/24 09:34:46;;;;;;;;;;;;;;;22.51;43.50;99836.95;1648083;86;20974;-80
2021/05/24 09:37:12;;;;;;;;;;;;;;;22.61;43.11;99837.59;1649179;85;20217;-83
2021/05/24 09:39:39;;;;;;;;;;;;;;;22.75;42.97;99839.85;1651633;85;20696;-81
2021/05/24 09:42:14;;;;;;;;;;;;;;;22.87;45.11;99838.22;1645575;85;20217;-82
2021/05/24 09:44:50;;;;;;;;;;;;;;;22.72;41.25;99832.95;1652397;85;20190;-82
2021/05/24 09:47:29;;;;;;;;;;;;;;;22.86;42.06;99837.83;1675838;83;20955;-81
2021/05/24 09:49:59;;;;;;;;;;;;;;;23.10;43.02;99827.01;1667963;83;20224;-82
2021/05/24 09:52:34;;;;;;;;;;;;;;;23.45;43.82;99821.16;1727518;81;20237;-82
2021/05/24 09:55:16;;;;;;;;;;;;;;;23.62;40.13;99810.25;1733179;81;20213;-83
2021/05/24 09:57:54;;;;;;;;;;;;;;;23.84;43.80;99810.15;1748980;81;20234;-83
2021/05/24 10:00:24;;;;;;;;;;;;;;;23.94;40.26;99805.06;1729581;81;20209;-81
2021/05/24 10:02:53;;;;;;;;;;;;;;;24.02;38.59;99800.06;1742625;81;20256;-82
2021/05/24 10:05:19;;;;;;;;;;;;;;;24.12;37.46;99805.09;1741408;81;20194;-83
2021/05/24 10:07:46;;;;;;;;;;;;;;;24.21;38.42;99805.78;1744628;81;20201;-82
2021/05/24 10:10:12;;;;;;;;;;;;;;;24.27;41.24;99803.63;1740097;81;20185;-82
2021/05/24 10:12:39;;;;;;;;;;;;;;;24.22;37.64;99799.50;1732110;81;20223;-81
2021/05/24 10:15:08;;;;;;;;;;;;;;;24.33;38.44;99805.39;1751526;81;20498;-83
2021/05/24 10:17:34;;;;;;;;;;;;;;;24.36;39.00;99799.84;1728917;82;20491;-82
2021/05/24 10:20:01;;;;;;;;;;;;;;;24.22;38.43;99795.52;1739948;81;20209;-83
2021/05/24 10:22:27;;;;;;;;;;;;;;;24.26;39.08;99793.50;1752605;81;20203;-84
2021/05/24 10:24:54;;;;;;;;;;;;;;;24.25;37.86;99793.11;1757092;81;20219;-83
2021/05/24 10:27:20;;;;;;;;;;;;;;;24.24;37.04;99794.57;1741353;81;20751;-84
2021/05/24 10:29:47;;;;;;;;;;;;;;;24.17;39.82;99791.48;1741713;81;21006;-83
2021/05/24 10:32:16;;;;;;;;;;;;;;;24.00;38.33;99788.69;1745249;81;20197;-83
2021/05/24 10:34:43;;;;;;;;;;;;;;;23.97;37.06;99792.42;1739690;81;20181;-83
2021/05/24 10:37:14;;;;;;;;;;;;;;;24.13;37.06;99790.00;1744083;81;20207;-81
2021/05/24 10:39:50;;;;;;;;;;;;;;;24.34;37.15;99775.68;1752181;81;20347;-83
2021/05/24 10:42:17;;;;;;;;;;;;;;;24.48;39.26;99772.87;1745336;80;20197;-83
2021/05/24 10:44:45;;;;;;;;;;;;;;;24.50;35.83;99770.11;1744054;81;20209;-81
2021/05/24 10:47:16;;;;;;;;;;;;;;;24.59;36.62;99774.77;1764766;80;20190;-83
2021/05/24 10:50:04;;;;;;;;;;;;;;;24.73;35.50;99770.66;1734547;81;20329;-81
2021/05/24 10:52:36;;;;;;;;;;;;;;;24.84;37.74;99766.35;1751097;80;20282;-82
2021/05/24 10:55:29;;;;;;;;;;;;;;;24.50;35.18;99767.00;1747314;81;20181;-83
2021/05/24 10:57:59;;;;;;;;;;;;;;;24.52;35.75;99769.55;1731516;81;20198;-82
2021/05/24 11:00:26;;;;;;;;;;;;;;;24.71;34.32;99763.27;1754917;81;20243;-83
2021/05/24 11:02:55;;;;;;;;;;;;;;;24.64;36.27;99768.66;1735304;81;20180;-83
2021/05/24 11:05:30;;;;;;;;;;;;;;;24.81;36.66;99762.95;1751666;81;20219;-83
2021/05/24 11:08:01;;;;;;;;;;;;;;;25.08;37.80;99764.52;1757012;81;20181;-83
2021/05/24 11:10:33;;;;;;;;;;;;;;;24.72;34.35;99766.28;1752394;81;20215;-83
2021/05/24 11:13:09;;;;;;;;;;;;;;;24.75;37.63;99758.09;1745264;80;21152;-83
2021/05/24 11:15:37;;;;;;;;;;;;;;;24.70;34.32;99758.06;1735074;81;20251;-82
2021/05/24 11:18:10;;;;;;;;;;;;;;;24.76;34.97;99754.45;1706814;83;20194;-80
2021/05/24 11:20:56;;;;;;;;;;;;;;;24.92;35.63;99738.22;1706767;83;20134;-82
2021/05/24 11:23:44;;;;;;;;;;;;;;;25.13;37.07;99742.42;1692478;83;20188;-83
2021/05/24 11:26:18;;;;;;;;;;;;;;;25.16;35.72;99748.82;1696069;83;20176;-83
2021/05/24 11:29:03;;;;;;;;;;;;;;;25.28;36.59;99755.55;1701463;83;20192;-82
2021/05/24 11:31:40;;;;;;;;;;;;;;;25.28;35.70;99747.56;1692437;83;20746;-82
2021/05/24 11:34:10;;;;;;;;;;;;;;;25.28;34.32;99743.58;1705723;83;20183;-81
2021/05/24 11:36:42;;;;;;;;;;;;;;;25.08;36.25;99731.27;1702765;82;20247;-84
2021/05/24 11:39:33;;;;;;;;;;;;;;;24.70;35.73;99738.12;1703486;82;20578;-83
2021/05/24 11:42:11;;;;;;;;;;;;;;;24.61;37.65;99732.98;1703909;83;20180;-84
2021/05/24 11:44:49;;;;;;;;;;;;;;;24.45;37.77;99729.72;1691538;83;20184;-83
2021/05/24 11:47:14;;;;;;;;;;;;;;;24.25;37.48;99728.02;1692550;84;20188;-84
2021/05/24 11:49:45;;;;;;;;;;;;;;;24.10;36.44;99720.68;1641878;86;20585;-83
2021/05/24 11:52:14;;;;;;;;;;;;;;;24.20;37.07;99718.22;1663542;85;20211;-83
2021/05/24 11:54:41;;;;;;;;;;;;;;;24.35;36.88;99718.45;1640202;86;20360;-83
2021/05/24 11:57:08;;;;;;;;;;;;;;;24.25;36.08;99719.20;1655381;85;20235;-82
2021/05/24 11:59:36;;;;;;;;;;;;;;;23.98;36.31;99716.25;1638872;86;20186;-84
2021/05/24 12:02:03;;;;;;;;;;;;;;;24.04;36.31;99716.30;1647383;86;20235;-83
2021/05/24 12:04:39;;;;;;;;;;;;;;;24.10;37.69;99711.38;1649616;86;20223;-83
2021/05/24 12:07:11;;;;;;;;;;;;;;;24.36;37.77;99702.86;1633630;86;20573;-83
2021/05/24 12:09:41;;;;;;;;;;;;;;;24.79;36.21;99705.05;1634692;86;20183;-84
2021/05/24 12:12:13;;;;;;;;;;;;;;;24.95;36.56;99695.94;1632840;86;20203;-83
2021/05/24 12:14:45;;;;;;;;;;;;;;;24.92;35.34;99686.84;1646546;86;20168;-83
2021/05/24 12:17:16;;;;;;;;;;;;;;;25.09;36.36;99686.42;1637941;85;20252;-83
2021/05/24 12:19:43;;;;;;;;;;;;;;;25.40;35.74;99688.91;1637557;86;20182;-83
2021/05/24 12:22:12;;;;;;;;;;;;;;;25.73;34.68;99689.09;1633735;86;20285;-84
2021/05/24 12:24:41;;;;;;;;;;;;;;;26.22;33.14;99682.51;1633806;86;20190;-84
2021/05/24 12:27:08;;;;;;;;;;;;;;;26.60;32.20;99682.58;1634856;86;20220;-83
2021/05/24 12:29:36;;;;;;;;;;;;;;;26.96;32.07;99681.33;1638638;88;20198;-86
2021/05/24 12:32:05;;;;;;;;;;;;;;;27.22;34.48;99680.94;1637905;87;20218;-83
2021/05/24 12:34:35;;;;;;;;;;;;;;;27.55;29.25;99681.20;1641998;86;20180;-85
2021/05/24 12:37:04;;;;;;;;;;;;;;;28.04;30.30;99672.59;1643771;86;20203;-81
2021/05/24 12:39:33;;;;;;;;;;;;;;;28.67;29.15;99668.25;1659557;86;20247;-83
2021/05/24 12:42:00;;;;;;;;;;;;;;;29.78;27.69;99673.50;1657062;86;20167;-85
2021/05/24 12:44:28;;;;;;;;;;;;;;;30.71;26.37;99668.84;1642622;83;20615;-83
2021/05/24 12:46:57;;;;;;;;;;;;;;;31.37;27.78;99667.17;1642898;82;20143;-83
2021/05/24 12:49:43;;;;;;;;;;;;;;;32.10;27.07;99664.88;1701138;80;20133;-85
2021/05/24 12:52:11;;;;;;;;;;;;;;;32.48;26.92;99669.84;1751302;81;20151;-83
2021/05/24 12:54:46;;;;;;;;;;;;;;;33.39;24.76;99668.02;1717094;81;20262;-81
2021/05/24 12:57:16;;;;;;;;;;;;;;;34.28;28.34;99661.95;1690828;82;20207;-83